Time;durP1;ratioP1;P1;durP2;ratioP2;P2;SDS_P1;SDS_P2;PMS_P1;PMS_P2;Temp;Humidity;BMP_temperature;BMP_pressure;BME280_temperature;BME280_humidity;BME280_pressure;Samples;Min_cycle;Max_cycle;Signal;HPM_P1;HPM_P2
2021/05/18 00:02:18;;;;;;;23.67;11.38;;;9.20;99.90;;;;;;4988873;28;20049;-60
2021/05/18 00:04:44;;;;;;;24.35;12.07;;;9.20;99.90;;;;;;4993480;28;20030;-61
2021/05/18 00:07:17;;;;;;;19.42;11.93;;;9.30;99.90;;;;;;4996223;28;20105;-61
2021/05/18 00:12:27;;;;;;;;;;;9.30;99.90;;;;;;4990329;28;20041;-61
2021/05/18 00:14:53;;;;;;;21.48;11.70;;;9.40;99.90;;;;;;4992204;28;19918;-61
2021/05/18 00:17:19;;;;;;;24.50;12.20;;;9.40;99.90;;;;;;4994010;28;20109;-61
2021/05/18 00:19:45;;;;;;;24.58;12.27;;;9.30;99.90;;;;;;4991269;28;20022;-61
2021/05/18 00:22:11;;;;;;;21.95;12.30;;;9.30;99.90;;;;;;4993672;28;20076;-62
2021/05/18 00:24:37;;;;;;;27.15;12.57;;;9.30;99.90;;;;;;4990930;28;20065;-62
2021/05/18 00:27:04;;;;;;;27.02;12.32;;;9.30;99.90;;;;;;4993964;28;20037;-61
2021/05/18 00:29:31;;;;;;;19.73;12.88;;;9.30;99.90;;;;;;4989438;28;20477;-60
2021/05/18 00:31:57;;;;;;;20.95;11.77;;;9.40;99.90;;;;;;4992643;28;20165;-61
2021/05/18 00:34:22;;;;;;;27.50;12.50;;;9.40;99.90;;;;;;4989734;28;20111;-62
2021/05/18 00:36:48;;;;;;;21.33;11.65;;;9.40;99.90;;;;;;4991840;28;20132;-62
2021/05/18 00:39:13;;;;;;;31.73;12.38;;;9.40;99.90;;;;;;4989535;28;20039;-62
2021/05/18 00:41:39;;;;;;;24.63;12.38;;;9.40;99.90;;;;;;4988425;28;20037;-61
2021/05/18 00:44:05;;;;;;;24.45;12.85;;;9.40;99.90;;;;;;4992000;28;20030;-59
2021/05/18 00:46:30;;;;;;;22.27;13.13;;;9.40;99.90;;;;;;4994213;28;20026;-61
2021/05/18 00:48:56;;;;;;;25.80;11.73;;;9.40;99.90;;;;;;4994899;28;20062;-60
2021/05/18 00:51:24;;;;;;;27.50;11.43;;;9.40;99.90;;;;;;4992719;28;20438;-62
2021/05/18 00:53:49;;;;;;;18.27;12.55;;;9.40;99.90;;;;;;4993736;28;20035;-61
2021/05/18 00:58:57;;;;;;;22.95;12.30;;;9.40;99.90;;;;;;4997315;28;20027;-60
2021/05/18 01:01:22;;;;;;;25.25;13.10;;;9.40;99.90;;;;;;4992276;28;20037;-62
2021/05/18 01:03:50;;;;;;;24.05;11.95;;;9.40;99.90;;;;;;4994823;28;20022;-60
2021/05/18 01:06:30;;;;;;;21.92;12.45;;;9.40;99.90;;;;;;4993401;28;20141;-61
2021/05/18 01:09:15;;;;;;;18.00;12.02;;;9.40;99.90;;;;;;4991715;28;20106;-61
2021/05/18 01:11:44;;;;;;;24.92;11.60;;;9.40;99.90;;;;;;4991692;28;20088;-62
2021/05/18 01:14:15;;;;;;;17.70;11.25;;;9.40;99.90;;;;;;4993368;28;20499;-62
2021/05/18 01:16:47;;;;;;;18.33;11.40;;;9.40;99.90;;;;;;4989738;28;20042;-60
2021/05/18 01:19:15;;;;;;;19.08;12.63;;;9.40;99.90;;;;;;4990225;28;20515;-60
2021/05/18 01:21:41;;;;;;;24.25;12.63;;;9.40;99.90;;;;;;4995876;28;20037;-60
2021/05/18 01:24:08;;;;;;;27.88;13.05;;;9.40;99.90;;;;;;4993160;28;20073;-62
2021/05/18 01:26:36;;;;;;;20.92;13.48;;;9.40;99.90;;;;;;4974221;28;20445;-62
2021/05/18 01:29:02;;;;;;;30.58;13.95;;;9.40;99.90;;;;;;4991919;28;20624;-61
2021/05/18 01:31:28;;;;;;;19.23;13.05;;;9.40;99.90;;;;;;4995676;28;20022;-62
2021/05/18 01:33:55;;;;;;;24.67;14.07;;;9.40;99.90;;;;;;4996537;28;20050;-62
2021/05/18 01:36:22;;;;;;;20.77;12.85;;;9.40;99.90;;;;;;4993167;28;20053;-62
2021/05/18 01:38:58;;;;;;;18.88;12.60;;;9.40;99.90;;;;;;4993383;28;20830;-61
2021/05/18 01:44:09;;;;;;;19.70;12.45;;;9.40;99.90;;;;;;4992673;28;20053;-62
2021/05/18 01:46:36;;;;;;;27.10;12.50;;;9.40;99.90;;;;;;4996256;28;20053;-61
2021/05/18 01:49:08;;;;;;;19.45;12.32;;;9.40;99.90;;;;;;4992756;28;20031;-61
2021/05/18 01:51:46;;;;;;;17.75;10.73;;;9.40;99.90;;;;;;4988246;28;20057;-61
2021/05/18 01:54:20;;;;;;;20.85;11.77;;;9.40;99.90;;;;;;4991336;28;20068;-62
2021/05/18 01:56:53;;;;;;;23.33;11.55;;;9.40;99.90;;;;;;4994684;28;20045;-60
2021/05/18 01:59:22;;;;;;;23.45;12.05;;;9.40;99.90;;;;;;4982272;28;20662;-62
2021/05/18 02:01:50;;;;;;;21.55;11.68;;;9.40;99.90;;;;;;4987068;28;20034;-61
2021/05/18 02:04:36;;;;;;;18.80;10.98;;;9.40;99.90;;;;;;4998217;28;21193;-61
2021/05/18 02:07:06;;;;;;;17.40;10.32;;;9.40;99.90;;;;;;4988900;28;20026;-60
2021/05/18 02:09:31;;;;;;;18.77;11.65;;;9.50;99.90;;;;;;4992375;28;20121;-62
2021/05/18 02:11:57;;;;;;;18.85;11.80;;;9.50;99.90;;;;;;4994301;28;20114;-61
2021/05/18 02:14:28;;;;;;;15.35;11.68;;;9.50;99.90;;;;;;4992216;28;20030;-61
2021/05/18 02:17:00;;;;;;;19.40;12.70;;;9.50;99.90;;;;;;4994382;28;20403;-60
2021/05/18 02:24:40;;;;;;;18.15;11.50;;;9.50;99.90;;;;;;4998397;28;20118;-62
2021/05/18 02:27:06;;;;;;;19.48;11.90;;;9.50;99.90;;;;;;4992759;28;20530;-62
2021/05/18 02:29:32;;;;;;;18.90;11.75;;;9.50;99.90;;;;;;4998658;28;20117;-62
2021/05/18 02:31:58;;;;;;;19.05;11.32;;;9.50;99.90;;;;;;4982239;28;20085;-62
2021/05/18 02:34:23;;;;;;;21.73;11.15;;;9.50;99.90;;;;;;5000749;28;20022;-61
2021/05/18 02:36:49;;;;;;;15.60;11.05;;;9.50;99.90;;;;;;4999908;28;20036;-60
2021/05/18 02:39:15;;;;;;;16.05;11.50;;;9.50;99.90;;;;;;4992810;28;20057;-60
2021/05/18 02:41:41;;;;;;;17.83;10.75;;;9.50;99.90;;;;;;4992099;28;20029;-62
2021/05/18 02:44:27;;;;;;;13.90;10.60;;;9.50;99.90;;;;;;4995337;28;20018;-61
2021/05/18 02:49:36;;;;;;;15.00;8.07;;;9.50;99.90;;;;;;5001425;28;20033;-59
2021/05/18 02:52:02;;;;;;;13.05;7.38;;;9.50;99.90;;;;;;4993013;28;20030;-57
2021/05/18 02:54:28;;;;;;;12.15;7.65;;;9.50;99.90;;;;;;4991811;28;20109;-58
2021/05/18 02:56:58;;;;;;;14.13;7.80;;;9.50;99.90;;;;;;4992729;28;20110;-57
2021/05/18 02:59:24;;;;;;;11.18;6.47;;;9.40;99.90;;;;;;4995547;28;20499;-57
2021/05/18 03:01:53;;;;;;;11.02;7.10;;;9.50;99.90;;;;;;4992269;28;20033;-56
2021/05/18 03:04:19;;;;;;;9.75;6.05;;;9.50;99.90;;;;;;4992674;28;20415;-57
2021/05/18 03:06:48;;;;;;;9.95;5.97;;;9.50;99.90;;;;;;4993038;28;20041;-57
2021/05/18 03:09:14;;;;;;;8.48;5.53;;;9.50;99.90;;;;;;4990468;28;20026;-59
2021/05/18 03:11:41;;;;;;;10.43;4.70;;;9.50;99.90;;;;;;4989757;28;20041;-58
2021/05/18 03:14:09;;;;;;;11.85;5.47;;;9.50;99.90;;;;;;4994718;28;20080;-57
2021/05/18 03:16:37;;;;;;;8.23;4.63;;;9.50;99.90;;;;;;4989801;28;20041;-59
2021/05/18 03:19:03;;;;;;;8.32;4.85;;;9.50;99.90;;;;;;4993722;28;20109;-56
2021/05/18 03:21:29;;;;;;;11.05;4.88;;;9.50;99.90;;;;;;4991384;28;20030;-57
2021/05/18 03:23:55;;;;;;;6.82;4.97;;;9.50;99.90;;;;;;4992589;28;20042;-58
2021/05/18 03:26:21;;;;;;;11.45;5.05;;;9.50;99.90;;;;;;4992604;28;20449;-57
2021/05/18 03:28:53;;;;;;;7.43;4.45;;;9.50;99.90;;;;;;4994510;28;20578;-58
2021/05/18 03:36:47;;;;;;;10.73;4.68;;;9.50;99.90;;;;;;4995080;28;20084;-56
2021/05/18 03:39:13;;;;;;;7.82;4.22;;;9.60;99.90;;;;;;4990139;28;20018;-57
2021/05/18 03:41:51;;;;;;;10.15;4.63;;;9.60;99.90;;;;;;4993657;28;20471;-56
2021/05/18 03:52:29;;;;;;;12.23;3.35;;;9.60;99.90;;;;;;4995899;28;20476;-57
2021/05/18 03:55:04;;;;;;;14.88;3.85;;;9.60;99.90;;;;;;4988592;28;20592;-56
2021/05/18 04:03:04;;;;;;;;;;;9.60;99.90;;;;;;4996429;28;20053;-58
2021/05/18 04:16:51;;;;;;;9.70;3.72;;;9.70;99.90;;;;;;4995442;28;20041;-55
2021/05/18 04:18:58;;;;;;;5.78;3.20;;;9.70;99.90;;;;;;4987893;28;20165;-58
2021/05/18 05:01:53;;;;;;;11.73;3.63;;;10.00;99.90;;;;;;4998329;28;20041;-57
2021/05/18 05:07:11;;;;;;;6.75;3.10;;;10.00;99.90;;;;;;4992660;28;20102;-55
2021/05/18 05:09:41;;;;;;;8.35;3.30;;;10.00;99.90;;;;;;4992954;28;20022;-57
2021/05/18 05:14:51;;;;;;;13.95;3.75;;;10.10;99.90;;;;;;4997417;28;20037;-55
2021/05/18 05:17:16;;;;;;;9.23;4.05;;;10.10;99.90;;;;;;4992535;28;20026;-54
2021/05/18 05:19:42;;;;;;;6.40;3.30;;;10.10;99.90;;;;;;5000899;28;20502;-55
2021/05/18 05:22:07;;;;;;;13.23;3.25;;;10.10;99.90;;;;;;4994587;28;20038;-57
2021/05/18 05:24:34;;;;;;;13.75;3.63;;;10.10;99.90;;;;;;4994606;28;20101;-56
2021/05/18 05:27:00;;;;;;;9.30;3.15;;;10.10;99.90;;;;;;4997038;28;20080;-57
2021/05/18 05:29:26;;;;;;;7.43;3.22;;;10.10;99.90;;;;;;4994417;28;20042;-57
2021/05/18 05:31:54;;;;;;;17.40;3.55;;;10.20;99.90;;;;;;4994942;28;20555;-58
2021/05/18 05:34:20;;;;;;;10.32;3.67;;;10.10;99.90;;;;;;4993318;28;20492;-57
2021/05/18 05:36:46;;;;;;;9.93;3.70;;;10.10;99.90;;;;;;4995200;28;20048;-58
2021/05/18 05:39:22;;;;;;;7.97;3.70;;;10.20;99.90;;;;;;4992397;28;20034;-52
2021/05/18 05:41:48;;;;;;;8.95;3.38;;;10.30;99.90;;;;;;4993938;28;20513;-55
2021/05/18 05:44:13;;;;;;;9.82;2.67;;;10.50;99.90;;;;;;4992175;28;20038;-58
2021/05/18 05:46:39;;;;;;;12.65;3.08;;;10.60;99.90;;;;;;4996014;28;20080;-59
2021/05/18 05:49:05;;;;;;;7.72;3.50;;;10.70;99.90;;;;;;4995836;28;20026;-57
2021/05/18 05:51:31;;;;;;;8.82;3.10;;;10.70;99.90;;;;;;4994777;28;20033;-59
2021/05/18 05:53:59;;;;;;;9.63;3.28;;;10.70;99.90;;;;;;4992701;28;20033;-58
2021/05/18 05:56:29;;;;;;;10.02;2.85;;;10.60;99.90;;;;;;4993265;28;20035;-58
2021/05/18 05:58:55;;;;;;;7.55;2.70;;;10.50;99.90;;;;;;4993279;28;20057;-60
2021/05/18 06:01:21;;;;;;;10.13;3.13;;;10.50;99.90;;;;;;4993498;28;20027;-57
2021/05/18 06:03:46;;;;;;;20.98;11.48;;;10.50;99.90;;;;;;4991780;28;20068;-58
2021/05/18 06:06:12;;;;;;;23.33;12.18;;;10.50;99.90;;;;;;4989092;28;20026;-58
2021/05/18 06:08:42;;;;;;;9.80;5.50;;;10.40;99.90;;;;;;4993581;28;20152;-57
2021/05/18 06:11:14;;;;;;;6.15;3.42;;;10.50;99.90;;;;;;4992183;28;20015;-58
2021/05/18 06:43:19;;;;;;;8.45;3.08;;;10.70;99.90;;;;;;4991175;28;20054;-55
2021/05/18 06:48:10;;;;;;;7.72;4.25;;;10.70;99.90;;;;;;5003718;28;20061;-55
2021/05/18 06:50:36;;;;;;;11.38;2.92;;;10.70;99.90;;;;;;4998472;28;20104;-55
2021/05/18 06:53:02;;;;;;;11.18;6.70;;;10.60;99.90;;;;;;4998528;28;20031;-56
2021/05/18 06:55:30;;;;;;;10.10;7.43;;;10.50;99.90;;;;;;4997664;28;20034;-58
2021/05/18 06:58:19;;;;;;;17.05;5.88;;;10.40;99.90;;;;;;5008690;28;20068;-57
2021/05/18 07:00:46;;;;;;;13.20;7.43;;;10.40;99.90;;;;;;4982879;28;20053;-57
2021/05/18 07:03:21;;;;;;;14.98;7.43;;;10.30;99.90;;;;;;4989726;28;20034;-55
2021/05/18 07:06:00;;;;;;;16.95;9.40;;;10.30;99.90;;;;;;4988864;28;20496;-55
2021/05/18 07:10:54;;;;;;;10.80;9.60;;;10.30;99.90;;;;;;4990450;28;20041;-58
2021/05/18 07:13:20;;;;;;;17.95;8.50;;;10.20;99.90;;;;;;4989739;28;20597;-58
2021/05/18 07:15:46;;;;;;;15.85;8.95;;;10.30;99.90;;;;;;4989690;28;20030;-58
2021/05/18 07:18:12;;;;;;;8.50;3.80;;;10.30;99.90;;;;;;4989524;28;20052;-59
2021/05/18 07:20:38;;;;;;;14.23;5.45;;;10.20;99.90;;;;;;4988500;28;20030;-57
2021/05/18 07:23:09;;;;;;;16.13;10.55;;;10.30;99.90;;;;;;4989667;28;20038;-58
2021/05/18 07:25:35;;;;;;;12.10;6.00;;;10.30;99.90;;;;;;4991475;28;20455;-59
2021/05/18 07:28:06;;;;;;;9.07;5.25;;;10.50;99.90;;;;;;4989095;28;20026;-57
2021/05/18 07:30:33;;;;;;;13.70;8.50;;;10.60;99.90;;;;;;4989852;28;20113;-56
2021/05/18 07:33:02;;;;;;;10.25;5.05;;;10.80;99.90;;;;;;4987786;28;20034;-58
2021/05/18 07:35:28;;;;;;;10.13;5.40;;;10.90;99.90;;;;;;4989975;28;20026;-57
2021/05/18 07:37:54;;;;;;;7.38;3.38;;;11.10;99.90;;;;;;4988539;28;20030;-57
2021/05/18 07:40:19;;;;;;;8.55;5.13;;;11.30;99.90;;;;;;4989448;28;20026;-59
2021/05/18 07:42:51;;;;;;;7.05;3.63;;;11.50;99.90;;;;;;4988374;28;20038;-57
2021/05/18 07:45:17;;;;;;;9.68;5.22;;;11.60;99.90;;;;;;4990319;28;20027;-57
2021/05/18 07:47:43;;;;;;;9.15;3.20;;;11.70;99.90;;;;;;4987764;28;20030;-58
2021/05/18 07:50:14;;;;;;;30.77;21.83;;;11.90;99.90;;;;;;4992364;28;20053;-58
2021/05/18 08:05:51;;;;;;;12.07;5.55;;;12.20;99.90;;;;;;4999228;28;20031;-57
2021/05/18 08:08:17;;;;;;;8.65;6.32;;;12.40;99.90;;;;;;4969466;28;20034;-58
2021/05/18 08:10:49;;;;;;;8.75;4.72;;;12.80;99.90;;;;;;4998026;28;20480;-58
2021/05/18 08:13:20;;;;;;;10.95;4.18;;;13.20;99.90;;;;;;4992003;28;20117;-58
2021/05/18 08:18:39;;;;;;;5.70;3.92;;;14.10;99.90;;;;;;4993870;28;20121;-58
2021/05/18 10:18:38;;;;;;;14.65;9.52;;;12.70;99.90;;;;;;4997611;28;19920;-58
2021/05/18 10:38:48;;;;;;;11.02;6.60;;;12.60;99.90;;;;;;4996740;28;20531;-57
2021/05/18 10:41:13;;;;;;;15.73;10.23;;;12.70;99.90;;;;;;4986247;28;20042;-57
2021/05/18 10:43:40;;;;;;;11.88;8.73;;;12.60;99.90;;;;;;4988984;28;20503;-55
2021/05/18 10:46:19;;;;;;;13.05;7.90;;;12.60;99.90;;;;;;4961555;28;20454;-56
2021/05/18 10:48:52;;;;;;;9.27;5.60;;;12.70;99.90;;;;;;4993248;28;20034;-57
2021/05/18 10:51:25;;;;;;;8.55;5.22;;;13.00;99.90;;;;;;4992357;28;20037;-57
2021/05/18 10:54:22;;;;;;;11.83;5.60;;;12.80;99.90;;;;;;4987156;28;20117;-57
2021/05/18 10:57:00;;;;;;;11.65;8.48;;;12.50;99.90;;;;;;4988925;28;20306;-57
2021/05/18 10:59:34;;;;;;;27.88;16.10;;;12.30;99.90;;;;;;4993827;28;20073;-59
2021/05/18 11:02:20;;;;;;;20.40;13.77;;;12.10;99.90;;;;;;4985329;28;20030;-58
2021/05/18 11:04:53;;;;;;;13.77;9.07;;;12.10;99.90;;;;;;4986959;28;20030;-57
2021/05/18 11:07:22;;;;;;;21.27;13.23;;;12.20;99.90;;;;;;4989443;28;20029;-58
2021/05/18 11:09:49;;;;;;;15.10;10.88;;;12.40;99.90;;;;;;4984660;28;20101;-58
2021/05/18 11:12:17;;;;;;;20.63;12.05;;;12.70;99.90;;;;;;4972716;28;20137;-57
2021/05/18 11:14:49;;;;;;;12.07;8.02;;;13.10;99.90;;;;;;4990138;28;20037;-55
2021/05/18 11:17:24;;;;;;;8.75;6.38;;;13.60;99.90;;;;;;4988905;28;20037;-58
2021/05/18 11:19:57;;;;;;;8.85;5.18;;;13.80;99.90;;;;;;4992545;28;20153;-59
2021/05/18 11:25:08;;;;;;;9.80;5.38;;;14.40;99.90;;;;;;4989154;28;20057;-57
2021/05/18 11:27:34;;;;;;;7.18;5.15;;;14.40;99.90;;;;;;4990688;28;20034;-60
2021/05/18 11:30:00;;;;;;;7.65;4.60;;;14.40;99.90;;;;;;4991141;28;20069;-59
2021/05/18 11:32:25;;;;;;;10.88;7.13;;;14.70;99.90;;;;;;4985635;28;20029;-59
2021/05/18 11:34:51;;;;;;;7.57;5.63;;;14.90;99.90;;;;;;4987828;28;20042;-58
2021/05/18 11:37:17;;;;;;;16.65;11.95;;;14.90;99.90;;;;;;4991550;28;20038;-59
2021/05/18 11:39:42;;;;;;;5.30;4.00;;;14.90;99.90;;;;;;4991631;28;20027;-58
2021/05/18 11:42:08;;;;;;;13.02;7.15;;;14.90;99.90;;;;;;4987286;28;20527;-60
2021/05/18 11:44:35;;;;;;;22.38;13.80;;;15.30;99.90;;;;;;4991015;28;20096;-57
2021/05/18 11:47:01;;;;;;;32.38;16.48;;;15.40;99.90;;;;;;4995532;28;20022;-59
2021/05/18 11:49:27;;;;;;;15.73;9.82;;;15.40;99.90;;;;;;4963804;28;20052;-58
2021/05/18 11:51:58;;;;;;;12.48;7.82;;;15.20;99.90;;;;;;4979976;28;20062;-58
2021/05/18 11:54:27;;;;;;;10.02;5.63;;;15.40;99.90;;;;;;4988090;28;20507;-57
2021/05/18 11:56:54;;;;;;;3.92;3.38;;;15.80;99.90;;;;;;4990184;28;21363;-58
2021/05/18 11:59:24;;;;;;;4.75;3.22;;;16.20;99.90;;;;;;4990628;28;20031;-60
2021/05/18 12:01:58;;;;;;;5.07;3.30;;;15.90;99.90;;;;;;4987136;28;20030;-59
2021/05/18 12:04:26;;;;;;;12.43;5.70;;;15.80;99.90;;;;;;4993395;28;20018;-58
2021/05/18 12:07:04;;;;;;;10.50;6.55;;;15.70;99.90;;;;;;4988780;28;20022;-58
2021/05/18 12:09:32;;;;;;;18.48;10.25;;;15.90;99.90;;;;;;4992041;28;20033;-59
2021/05/18 12:12:04;;;;;;;4.75;3.60;;;16.50;99.90;;;;;;4993976;28;20509;-58
2021/05/18 12:14:30;;;;;;;4.45;3.00;;;16.40;99.90;;;;;;4983076;28;20050;-59
2021/05/18 12:16:56;;;;;;;4.70;3.80;;;16.40;99.90;;;;;;4995180;28;20517;-59
2021/05/18 12:19:23;;;;;;;9.75;4.32;;;16.10;99.90;;;;;;4988822;28;20057;-59
2021/05/18 12:21:52;;;;;;;6.22;3.13;;;16.50;99.90;;;;;;4987184;28;20027;-55
2021/05/18 12:24:20;;;;;;;10.25;4.05;;;16.60;99.90;;;;;;4983700;28;20113;-56
2021/05/18 12:26:50;;;;;;;5.82;3.15;;;16.70;99.90;;;;;;4995997;28;20025;-58
2021/05/18 12:29:54;;;;;;;5.07;3.38;;;16.80;99.90;;;;;;4987761;28;20026;-57
2021/05/18 12:32:27;;;;;;;5.68;2.65;;;17.10;99.90;;;;;;4978697;28;20038;-59
2021/05/18 12:35:15;;;;;;;3.10;1.92;;;17.20;99.30;;;;;;4995183;28;20037;-58
2021/05/18 12:37:47;;;;;;;4.88;2.58;;;17.10;99.90;;;;;;4992375;28;20407;-58
2021/05/18 12:40:14;;;;;;;4.60;2.80;;;17.40;99.90;;;;;;4994354;28;20401;-59
2021/05/18 12:42:41;;;;;;;4.97;2.67;;;17.70;98.60;;;;;;4993743;28;20030;-59
2021/05/18 12:45:08;;;;;;;7.15;3.05;;;17.90;99.30;;;;;;4999503;28;20046;-59
2021/05/18 12:47:44;;;;;;;4.70;3.03;;;18.00;98.90;;;;;;4996645;28;20073;-58
2021/05/18 12:50:12;;;;;;;5.70;3.45;;;17.80;97.00;;;;;;4998602;28;20040;-59
2021/05/18 12:52:44;;;;;;;5.47;3.70;;;17.40;97.10;;;;;;4993810;28;20038;-58
2021/05/18 12:55:16;;;;;;;4.75;3.50;;;17.30;99.90;;;;;;4995320;28;20030;-57
2021/05/18 12:57:49;;;;;;;6.32;3.30;;;17.30;99.90;;;;;;4991955;28;20518;-57
2021/05/18 13:00:16;;;;;;;5.57;3.33;;;17.20;99.90;;;;;;4988093;28;20030;-59
2021/05/18 13:02:45;;;;;;;7.05;4.53;;;17.00;99.90;;;;;;4993373;28;20480;-59
2021/05/18 13:05:17;;;;;;;4.53;3.35;;;17.10;99.90;;;;;;4996084;28;20089;-57
2021/05/18 13:08:02;;;;;;;10.68;5.93;;;17.00;99.90;;;;;;4991616;28;20292;-58
2021/05/18 13:10:37;;;;;;;7.07;3.75;;;17.10;99.90;;;;;;4995611;28;20026;-59
2021/05/18 13:13:03;;;;;;;6.32;3.58;;;17.20;98.90;;;;;;4996852;28;20061;-58
2021/05/18 13:15:28;;;;;;;3.90;3.38;;;17.30;98.70;;;;;;4994962;28;20395;-58
2021/05/18 13:17:56;;;;;;;7.43;3.92;;;17.20;98.30;;;;;;4985642;28;20042;-56
2021/05/18 13:20:24;;;;;;;5.90;2.75;;;17.40;96.90;;;;;;4987426;28;20066;-59
2021/05/18 13:22:57;;;;;;;7.32;3.90;;;17.60;96.30;;;;;;4992630;28;20142;-60
2021/05/18 13:28:07;;;;;;;5.68;2.47;;;17.80;95.40;;;;;;4992326;28;19960;-57
2021/05/18 13:30:35;;;;;;;7.40;3.63;;;17.50;95.50;;;;;;4973044;28;20030;-60
2021/05/18 13:33:01;;;;;;;3.15;1.90;;;17.50;95.90;;;;;;4991758;28;20113;-56
2021/05/18 13:35:29;;;;;;;17.05;10.13;;;17.40;95.40;;;;;;4993416;28;20062;-58
2021/05/18 13:37:56;;;;;;;4.80;2.72;;;17.50;95.00;;;;;;4994918;28;20100;-57
2021/05/18 13:40:22;;;;;;;4.70;2.60;;;17.60;97.70;;;;;;4999769;28;20026;-58
2021/05/18 13:42:50;;;;;;;15.98;10.85;;;17.80;96.20;;;;;;4997684;28;20477;-58
2021/05/18 13:45:17;;;;;;;8.10;3.15;;;17.90;94.80;;;;;;5001045;28;20034;-57
2021/05/18 13:47:43;;;;;;;14.00;9.70;;;18.00;96.70;;;;;;5000652;28;20033;-58
2021/05/18 13:50:09;;;;;;;5.03;3.63;;;17.70;95.40;;;;;;5000179;28;20027;-57
2021/05/18 13:52:34;;;;;;;7.00;4.05;;;17.60;97.00;;;;;;4989381;28;20034;-54
2021/05/18 13:55:00;;;;;;;5.88;4.95;;;16.30;95.20;;;;;;4987567;28;20035;-58
2021/05/18 13:57:26;;;;;;;7.07;5.22;;;15.30;97.80;;;;;;4986134;28;20472;-58
2021/05/18 13:59:52;;;;;;;14.77;5.97;;;14.60;99.20;;;;;;4989213;28;20053;-57
2021/05/18 14:02:18;;;;;;;13.55;7.63;;;13.80;99.90;;;;;;4962992;28;20030;-57
2021/05/18 14:04:44;;;;;;;16.50;7.20;;;13.00;99.90;;;;;;4989966;28;20037;-60
2021/05/18 14:09:49;;;;;;;14.75;8.23;;;11.90;99.90;;;;;;4993051;28;20400;-54
2021/05/18 14:12:15;;;;;;;16.00;9.23;;;11.40;99.90;;;;;;4992314;28;20114;-57
2021/05/18 14:14:40;;;;;;;16.10;10.13;;;11.00;99.90;;;;;;4993938;28;20030;-57
2021/05/18 14:17:06;;;;;;;16.30;11.30;;;10.70;99.90;;;;;;4980365;28;20076;-55
2021/05/18 14:19:31;;;;;;;14.75;10.25;;;10.60;99.90;;;;;;4994468;28;20030;-56
2021/05/18 14:21:57;;;;;;;12.30;10.15;;;10.70;99.90;;;;;;4998082;28;20034;-52
2021/05/18 14:24:36;;;;;;;13.80;11.32;;;10.80;99.90;;;;;;4982755;28;20038;-53
2021/05/18 14:27:01;;;;;;;16.15;9.93;;;11.00;99.90;;;;;;4995605;28;20102;-54
2021/05/18 14:29:27;;;;;;;17.35;11.55;;;11.50;99.90;;;;;;4991634;28;20109;-54
2021/05/18 14:31:54;;;;;;;10.43;8.15;;;11.90;99.90;;;;;;4996705;28;20029;-56
2021/05/18 14:34:20;;;;;;;9.52;8.27;;;12.40;99.90;;;;;;4998868;28;20140;-57
2021/05/18 14:36:46;;;;;;;8.88;6.78;;;12.60;99.90;;;;;;4993074;28;20038;-57
2021/05/18 14:39:12;;;;;;;7.40;5.90;;;12.90;99.90;;;;;;4995563;28;20511;-55
2021/05/18 14:44:28;;;;;;;9.10;5.40;;;13.10;99.90;;;;;;4992197;28;20045;-54
2021/05/18 14:47:03;;;;;;;8.02;5.05;;;13.30;99.90;;;;;;4997506;28;20394;-54
2021/05/18 14:55:07;;;;;;;6.03;4.93;;;13.60;99.90;;;;;;4986460;28;20157;-54
2021/05/18 14:57:33;;;;;;;9.63;5.25;;;13.50;99.90;;;;;;4988303;28;20042;-57
2021/05/18 14:59:58;;;;;;;7.70;4.85;;;13.40;99.90;;;;;;4987670;28;20037;-57
2021/05/18 15:02:24;;;;;;;9.50;5.63;;;13.50;99.90;;;;;;4987120;28;20041;-57
2021/05/18 15:04:49;;;;;;;5.68;5.00;;;13.50;99.90;;;;;;4989172;28;20026;-58
2021/05/18 15:07:15;;;;;;;6.30;5.15;;;13.50;99.90;;;;;;4988139;28;20026;-56
2021/05/18 15:09:41;;;;;;;6.93;5.03;;;13.40;99.90;;;;;;4989014;28;20033;-56
2021/05/18 15:12:07;;;;;;;7.43;6.63;;;13.40;99.90;;;;;;4993664;28;20038;-57
2021/05/18 15:14:34;;;;;;;8.60;7.10;;;13.40;99.90;;;;;;4990982;28;20026;-58
2021/05/18 15:17:01;;;;;;;9.35;7.57;;;13.20;99.90;;;;;;4994303;28;20019;-59
2021/05/18 15:19:27;;;;;;;11.45;7.28;;;13.20;99.90;;;;;;4989776;28;20039;-57
2021/05/18 15:21:53;;;;;;;9.07;6.20;;;13.20;99.90;;;;;;4993608;28;20034;-58
2021/05/18 15:24:20;;;;;;;9.73;6.32;;;13.10;99.90;;;;;;4990356;28;20033;-59
2021/05/18 15:26:46;;;;;;;9.93;7.50;;;13.10;99.90;;;;;;4989288;28;20094;-58
2021/05/18 15:29:13;;;;;;;8.85;6.82;;;13.10;99.90;;;;;;4980595;28;20046;-58
2021/05/18 15:31:39;;;;;;;9.50;6.38;;;13.10;99.90;;;;;;4993344;28;20029;-58
2021/05/18 15:34:04;;;;;;;13.13;6.38;;;13.30;99.90;;;;;;4994801;28;20030;-59
2021/05/18 15:36:30;;;;;;;7.63;6.82;;;13.40;99.90;;;;;;4977663;28;580550;-57
2021/05/18 15:38:55;;;;;;;8.02;5.85;;;13.50;99.90;;;;;;4992962;28;20030;-59
2021/05/18 15:41:21;;;;;;;8.23;5.38;;;13.60;99.90;;;;;;4991424;28;20030;-56
2021/05/18 15:43:47;;;;;;;8.70;5.10;;;13.50;99.90;;;;;;4988742;28;20026;-59
2021/05/18 15:46:14;;;;;;;6.50;5.80;;;13.40;99.90;;;;;;4989549;28;20026;-56
2021/05/18 15:48:40;;;;;;;8.13;5.72;;;13.30;99.90;;;;;;4987594;28;20041;-58
2021/05/18 15:51:05;;;;;;;8.60;6.57;;;13.10;99.90;;;;;;4989755;28;20114;-57
2021/05/18 15:53:31;;;;;;;9.70;5.93;;;12.90;99.90;;;;;;4987350;28;20507;-60
2021/05/18 15:55:57;;;;;;;8.15;5.15;;;12.80;99.90;;;;;;4991342;28;20038;-58
2021/05/18 15:58:23;;;;;;;9.63;6.88;;;12.60;99.90;;;;;;4993539;28;20018;-57
2021/05/18 16:00:51;;;;;;;12.57;8.45;;;12.60;99.90;;;;;;4988990;28;20092;-59
2021/05/18 16:03:17;;;;;;;13.98;6.45;;;12.50;99.90;;;;;;4990572;28;20030;-59
2021/05/18 16:05:42;;;;;;;10.75;7.07;;;12.50;99.90;;;;;;4996502;28;20033;-57
2021/05/18 16:10:53;;;;;;;7.05;6.20;;;12.10;99.90;;;;;;4992095;28;20395;-58
2021/05/18 16:13:19;;;;;;;9.45;7.30;;;12.00;99.90;;;;;;4983025;28;20142;-58
2021/05/18 16:15:44;;;;;;;12.32;6.53;;;11.90;99.90;;;;;;4990601;28;20113;-55
2021/05/18 16:18:10;;;;;;;8.25;6.85;;;11.90;99.90;;;;;;4992008;28;20470;-59
2021/05/18 16:20:35;;;;;;;7.30;5.35;;;11.90;99.90;;;;;;4996776;28;20046;-58
2021/05/18 16:23:01;;;;;;;6.45;4.88;;;11.90;99.90;;;;;;4992348;28;20034;-58
2021/05/18 16:25:27;;;;;;;6.85;5.22;;;11.90;99.90;;;;;;4996396;28;20030;-58
2021/05/18 16:27:52;;;;;;;9.75;6.63;;;11.80;99.90;;;;;;5001790;28;20092;-60
2021/05/18 16:30:18;;;;;;;6.70;5.68;;;11.80;99.90;;;;;;5007043;28;20061;-58
2021/05/18 16:32:43;;;;;;;7.72;5.82;;;11.80;99.90;;;;;;5001618;28;20034;-60
2021/05/18 16:35:12;;;;;;;8.35;6.07;;;11.80;99.90;;;;;;5002441;28;20080;-57
2021/05/18 16:37:38;;;;;;;8.68;5.68;;;11.70;99.90;;;;;;5006016;28;20506;-58
2021/05/18 16:40:04;;;;;;;7.63;6.40;;;11.70;99.90;;;;;;5004334;28;20078;-59
2021/05/18 16:42:29;;;;;;;7.45;6.10;;;11.70;99.90;;;;;;4988848;28;20599;-58
2021/05/18 16:44:55;;;;;;;10.73;6.85;;;11.60;99.90;;;;;;4989441;28;20042;-59
2021/05/18 16:47:20;;;;;;;60.45;35.10;;;11.70;99.90;;;;;;4991771;28;20022;-61
2021/05/18 16:49:46;;;;;;;171.50;98.35;;;11.70;99.90;;;;;;4990815;28;20034;-60
2021/05/18 16:52:12;;;;;;;223.90;127.20;;;11.80;99.90;;;;;;4992595;28;20026;-61
2021/05/18 16:54:37;;;;;;;59.00;37.08;;;11.90;99.90;;;;;;4997146;28;20058;-58
2021/05/18 16:57:03;;;;;;;25.02;15.25;;;12.00;99.90;;;;;;4997807;28;20038;-57
2021/05/18 16:59:28;;;;;;;20.73;12.35;;;12.30;99.90;;;;;;4998091;28;20088;-58
2021/05/18 17:01:54;;;;;;;7.82;5.80;;;12.60;99.90;;;;;;4996486;28;20037;-60
2021/05/18 17:04:20;;;;;;;8.60;6.80;;;12.80;99.90;;;;;;4991070;28;20023;-57
2021/05/18 17:06:46;;;;;;;10.60;6.28;;;12.90;99.90;;;;;;4985164;28;20034;-59
2021/05/18 17:09:12;;;;;;;6.53;5.80;;;13.00;99.90;;;;;;4986569;28;20022;-59
2021/05/18 17:11:43;;;;;;;8.77;6.00;;;13.20;99.90;;;;;;4986590;28;20038;-61
2021/05/18 17:14:10;;;;;;;8.10;5.22;;;13.20;99.90;;;;;;4984840;28;20037;-59
2021/05/18 17:16:36;;;;;;;7.47;6.03;;;13.20;99.90;;;;;;4983159;28;20034;-56
2021/05/18 17:19:02;;;;;;;7.10;5.30;;;13.30;99.90;;;;;;4997183;28;20031;-60
2021/05/18 17:21:29;;;;;;;8.50;5.97;;;13.40;99.90;;;;;;4989355;28;20038;-59
2021/05/18 17:23:55;;;;;;;7.25;6.18;;;13.20;99.90;;;;;;4993479;28;20026;-59
2021/05/18 17:26:21;;;;;;;11.65;6.55;;;13.10;99.90;;;;;;5001086;28;20085;-58
2021/05/18 17:28:46;;;;;;;8.05;6.38;;;13.10;99.90;;;;;;4984831;28;20110;-58
2021/05/18 17:31:14;;;;;;;9.70;5.68;;;13.00;99.90;;;;;;4982175;28;20101;-61
2021/05/18 17:33:41;;;;;;;8.95;6.35;;;13.00;99.90;;;;;;4985082;28;20081;-58
2021/05/18 17:36:07;;;;;;;9.45;6.13;;;13.10;99.90;;;;;;4985928;28;20432;-60
2021/05/18 17:38:33;;;;;;;7.18;6.38;;;13.20;99.90;;;;;;4993870;28;20037;-60
2021/05/18 17:41:01;;;;;;;8.40;6.15;;;13.30;99.90;;;;;;4993920;28;20026;-60
2021/05/18 17:43:26;;;;;;;8.15;5.75;;;13.30;99.90;;;;;;4995258;28;20848;-58
2021/05/18 17:45:52;;;;;;;9.57;6.38;;;13.40;99.90;;;;;;5000285;28;20038;-59